Impacts TAF Board
For situational awareness. Not to be used for flight planning purposes.
IDs:

KRIL - Rifle/Garfield Cnty, CO, US

Issued at 0531 UTC 27 Feb 2020
Updated at 0653 UTC 27 Feb 2020
Potential Impact None Slight Moderate High
Time0553Z 27/07Z 27/08Z 27/09Z 27/10Z 27/11Z 27/12Z 27/13Z 27/14Z 27/15Z 27/16Z 27/17Z 27/18Z 27/19Z>>
Type OBS PRVL PRVL PRVL PRVL PRVL PRVL PRVL PRVL PRVL PRVL PRVL PRVL PRVL
VIS 10 >6 >6 >6 >6 >6 >6 >6 >6 >6 >6 >6 >6 >6
CIG 90 100 100 100 100 100 100 100 -- -- -- -- -- --
Cover OVC BKN BKN BKN BKN BKN BKN BKN FEW FEW FEW FEW FEW FEW
FltCat VFR VFR VFR VFR VFR VFR VFR VFR VFR VFR VFR VFR VFR VFR
WX -- -- -- -- -- -- -- -- -- -- -- -- -- --
WDir VRB VRB VRB VRB VRB VRB VRB VRB VRB VRB VRB VRB VRB VRB
WSpd 0 0 0 0 0 0 0 0 3 3 3 3 3 3
WGst -- -- -- -- -- -- -- -- -- -- -- -- -- --
Raw TAF
KRIL 270531Z 2706/2806 VRB03KT P6SM OVC080
  FM270700 00000KT P6SM SCT080 BKN100
  FM271400 VRB03KT P6SM FEW080 FEW200
  FM280000 22004KT P6SM BKN250


Raw METAR
KRIL 270553Z AUTO 00000KT 10SM OVC090 M04/M09 A3038 RMK AO2 SLP327 T10441094 10011 21050 50005
KRIL 270453Z AUTO 00000KT 10SM OVC080 M04/M11 A3039 RMK AO2 SLP336 T10441111
KRIL 270353Z AUTO 14004KT 10SM SCT080 M05/M11 A3038 RMK AO2 SLP338 T10501111

METAR Board
Radar Display
Forecast Discussion
For situational awareness. Not to be used for flight planning purposes.